sensor_id;sensor_type;location;lat;lon;timestamp;pressure;altitude;pressure_sealevel;temperature;humidity
37634;BME280;32048;49.902;22.508;2023-05-20T00:02:12;99655.91;;;11.92;100.00
37634;BME280;32048;49.902;22.508;2023-05-20T00:04:39;99654.19;;;11.91;100.00
37634;BME280;32048;49.902;22.508;2023-05-20T00:07:08;99657.69;;;11.92;100.00
37634;BME280;32048;49.902;22.508;2023-05-20T00:09:36;99641.75;;;11.93;100.00
37634;BME280;32048;49.902;22.508;2023-05-20T00:12:04;99643.53;;;11.93;100.00
37634;BME280;32048;49.902;22.508;2023-05-20T00:14:31;99639.97;;;11.94;100.00
37634;BME280;32048;49.902;22.508;2023-05-20T00:16:58;99638.16;;;11.94;100.00
37634;BME280;32048;49.902;22.508;2023-05-20T00:19:25;99632.81;;;11.96;100.00
37634;BME280;32048;49.902;22.508;2023-05-20T00:21:52;99633.63;;;11.98;100.00
37634;BME280;32048;49.902;22.508;2023-05-20T00:24:19;99637.91;;;12.00;100.00
37634;BME280;32048;49.902;22.508;2023-05-20T00:26:46;99636.13;;;12.01;100.00
37634;BME280;32048;49.902;22.508;2023-05-20T00:29:13;99642.34;;;12.00;100.00
37634;BME280;32048;49.902;22.508;2023-05-20T00:31:40;99635.31;;;11.99;100.00
37634;BME280;32048;49.902;22.508;2023-05-20T00:34:08;99631.75;;;12.00;100.00
37634;BME280;32048;49.902;22.508;2023-05-20T00:36:35;99637.06;;;12.00;100.00
37634;BME280;32048;49.902;22.508;2023-05-20T00:39:02;99633.53;;;11.99;100.00
37634;BME280;32048;49.902;22.508;2023-05-20T00:41:29;99626.53;;;11.98;100.00
37634;BME280;32048;49.902;22.508;2023-05-20T00:43:56;99628.22;;;11.99;100.00
37634;BME280;32048;49.902;22.508;2023-05-20T00:46:23;99621.19;;;12.00;100.00
37634;BME280;32048;49.902;22.508;2023-05-20T00:48:52;99626.47;;;12.00;100.00
37634;BME280;32048;49.902;22.508;2023-05-20T00:51:19;99623.81;;;12.00;100.00
37634;BME280;32048;49.902;22.508;2023-05-20T00:53:46;99615.00;;;11.99;100.00
37634;BME280;32048;49.902;22.508;2023-05-20T00:56:13;99625.47;;;12.02;100.00
37634;BME280;32048;49.902;22.508;2023-05-20T00:58:40;99624.63;;;12.02;100.00
37634;BME280;32048;49.902;22.508;2023-05-20T01:01:07;99631.66;;;12.01;100.00
37634;BME280;32048;49.902;22.508;2023-05-20T01:03:34;99629.91;;;12.02;100.00
37634;BME280;32048;49.902;22.508;2023-05-20T01:06:02;99631.63;;;12.03;100.00
37634;BME280;32048;49.902;22.508;2023-05-20T01:08:28;99639.50;;;12.04;100.00
37634;BME280;32048;49.902;22.508;2023-05-20T01:13:46;99634.06;;;12.07;100.00
37634;BME280;32048;49.902;22.508;2023-05-20T01:16:17;99630.50;;;12.09;100.00
37634;BME280;32048;49.902;22.508;2023-05-20T01:18:44;99629.56;;;12.10;100.00
37634;BME280;32048;49.902;22.508;2023-05-20T01:21:14;99626.75;;;12.13;100.00
37634;BME280;32048;49.902;22.508;2023-05-20T01:23:42;99630.28;;;12.13;100.00
37634;BME280;32048;49.902;22.508;2023-05-20T01:26:10;99622.41;;;12.12;100.00
37634;BME280;32048;49.902;22.508;2023-05-20T01:28:40;99617.91;;;12.14;100.00
37634;BME280;32048;49.902;22.508;2023-05-20T01:31:20;99617.84;;;12.15;100.00
37634;BME280;32048;49.902;22.508;2023-05-20T01:33:50;99615.22;;;12.15;100.00
37634;BME280;32048;49.902;22.508;2023-05-20T01:36:18;99610.75;;;12.16;100.00
37634;BME280;32048;49.902;22.508;2023-05-20T01:38:45;99615.97;;;12.17;100.00
37634;BME280;32048;49.902;22.508;2023-05-20T01:41:12;99615.06;;;12.18;100.00
37634;BME280;32048;49.902;22.508;2023-05-20T01:43:39;99612.34;;;12.20;100.00
37634;BME280;32048;49.902;22.508;2023-05-20T01:46:06;99616.69;;;12.21;100.00
37634;BME280;32048;49.902;22.508;2023-05-20T01:48:33;99607.97;;;12.19;100.00
37634;BME280;32048;49.902;22.508;2023-05-20T01:51:00;99609.69;;;12.20;100.00
37634;BME280;32048;49.902;22.508;2023-05-20T01:53:27;99614.13;;;12.19;100.00
37634;BME280;32048;49.902;22.508;2023-05-20T01:55:54;99610.56;;;12.20;100.00
37634;BME280;32048;49.902;22.508;2023-05-20T01:58:21;99607.91;;;12.20;100.00
37634;BME280;32048;49.902;22.508;2023-05-20T02:00:48;99606.09;;;12.21;100.00
37634;BME280;32048;49.902;22.508;2023-05-20T02:03:15;99612.25;;;12.21;100.00
37634;BME280;32048;49.902;22.508;2023-05-20T02:05:42;99606.09;;;12.21;100.00
37634;BME280;32048;49.902;22.508;2023-05-20T02:08:09;99597.25;;;12.22;100.00
37634;BME280;32048;49.902;22.508;2023-05-20T02:10:36;99594.66;;;12.20;100.00
37634;BME280;32048;49.902;22.508;2023-05-20T02:13:03;99603.53;;;12.19;100.00
37634;BME280;32048;49.902;22.508;2023-05-20T02:15:30;99600.88;;;12.19;100.00
37634;BME280;32048;49.902;22.508;2023-05-20T02:17:57;99601.66;;;12.21;100.00
37634;BME280;32048;49.902;22.508;2023-05-20T02:20:25;99600.88;;;12.19;100.00
37634;BME280;32048;49.902;22.508;2023-05-20T02:22:51;99601.75;;;12.20;100.00
37634;BME280;32048;49.902;22.508;2023-05-20T02:25:18;99602.59;;;12.20;100.00
37634;BME280;32048;49.902;22.508;2023-05-20T02:27:45;99603.53;;;12.19;100.00
37634;BME280;32048;49.902;22.508;2023-05-20T02:30:13;99607.13;;;12.18;100.00
37634;BME280;32048;49.902;22.508;2023-05-20T02:32:40;99608.03;;;12.17;100.00
37634;BME280;32048;49.902;22.508;2023-05-20T02:35:08;99601.81;;;12.18;100.00
37634;BME280;32048;49.902;22.508;2023-05-20T02:37:35;99601.88;;;12.17;100.00
37634;BME280;32048;49.902;22.508;2023-05-20T02:40:05;99604.53;;;12.17;100.00
37634;BME280;32048;49.902;22.508;2023-05-20T02:42:32;99608.03;;;12.17;100.00
37634;BME280;32048;49.902;22.508;2023-05-20T02:44:59;99601.88;;;12.17;100.00
37634;BME280;32048;49.902;22.508;2023-05-20T02:47:26;99608.91;;;12.18;100.00
37634;BME280;32048;49.902;22.508;2023-05-20T02:49:53;99607.06;;;12.20;100.00
37634;BME280;32048;49.902;22.508;2023-05-20T02:52:20;99610.56;;;12.20;100.00
37634;BME280;32048;49.902;22.508;2023-05-20T02:54:47;99610.50;;;12.22;100.00
37634;BME280;32048;49.902;22.508;2023-05-20T02:57:14;99618.34;;;12.23;100.00
37634;BME280;32048;49.902;22.508;2023-05-20T02:59:42;99612.13;;;12.24;100.00
37634;BME280;32048;49.902;22.508;2023-05-20T03:02:08;99605.75;;;12.28;100.00
37634;BME280;32048;49.902;22.508;2023-05-20T03:04:35;99613.56;;;12.32;100.00
37634;BME280;32048;49.902;22.508;2023-05-20T03:07:04;99613.44;;;12.35;100.00
37634;BME280;32048;49.902;22.508;2023-05-20T03:09:33;99615.84;;;12.39;100.00
37634;BME280;32048;49.902;22.508;2023-05-20T03:12:00;99616.59;;;12.43;100.00
37634;BME280;32048;49.902;22.508;2023-05-20T03:14:27;99611.22;;;12.44;100.00
37634;BME280;32048;49.902;22.508;2023-05-20T03:16:54;99613.72;;;12.47;100.00
37634;BME280;32048;49.902;22.508;2023-05-20T03:19:21;99610.94;;;12.51;100.00
37634;BME280;32048;49.902;22.508;2023-05-20T03:21:49;99609.88;;;12.55;100.00
37634;BME280;32048;49.902;22.508;2023-05-20T03:24:16;99611.38;;;12.60;100.00
37634;BME280;32048;49.902;22.508;2023-05-20T03:26:43;99613.81;;;12.65;100.00
37634;BME280;32048;49.902;22.508;2023-05-20T03:29:12;99623.34;;;12.69;100.00
37634;BME280;32048;49.902;22.508;2023-05-20T03:31:39;99628.50;;;12.72;100.00
37634;BME280;32048;49.902;22.508;2023-05-20T03:34:06;99632.84;;;12.73;100.00
37634;BME280;32048;49.902;22.508;2023-05-20T03:36:33;99633.72;;;12.74;100.00
37634;BME280;32048;49.902;22.508;2023-05-20T03:39:00;99632.84;;;12.73;100.00
37634;BME280;32048;49.902;22.508;2023-05-20T03:41:30;99637.22;;;12.74;100.00
37634;BME280;32048;49.902;22.508;2023-05-20T03:43:57;99636.22;;;12.77;100.00
37634;BME280;32048;49.902;22.508;2023-05-20T03:46:24;99638.88;;;12.77;100.00
37634;BME280;32048;49.902;22.508;2023-05-20T03:48:51;99640.50;;;12.79;100.00
37634;BME280;32048;49.902;22.508;2023-05-20T03:51:18;99638.72;;;12.80;100.00
37634;BME280;32048;49.902;22.508;2023-05-20T03:53:45;99628.84;;;12.83;100.00
37634;BME280;32048;49.902;22.508;2023-05-20T03:56:12;99637.44;;;12.88;100.00
37634;BME280;32048;49.902;22.508;2023-05-20T03:58:39;99639.88;;;12.93;100.00
37634;BME280;32048;49.902;22.508;2023-05-20T04:01:06;99632.56;;;12.98;100.00
37634;BME280;32048;49.902;22.508;2023-05-20T04:03:33;99633.25;;;13.02;100.00
37634;BME280;32048;49.902;22.508;2023-05-20T04:06:01;99625.03;;;13.08;100.00
37634;BME280;32048;49.902;22.508;2023-05-20T04:08:28;99634.31;;;13.17;100.00
37634;BME280;32048;49.902;22.508;2023-05-20T04:10:56;99627.78;;;13.24;100.00
37634;BME280;32048;49.902;22.508;2023-05-20T04:13:24;99639.91;;;13.29;100.00
37634;BME280;32048;49.902;22.508;2023-05-20T04:15:51;99637.91;;;13.35;100.00
37634;BME280;32048;49.902;22.508;2023-05-20T04:18:19;99639.38;;;13.40;100.00
37634;BME280;32048;49.902;22.508;2023-05-20T04:20:46;99638.31;;;13.44;100.00
37634;BME280;32048;49.902;22.508;2023-05-20T04:23:13;99642.38;;;13.51;100.00
37634;BME280;32048;49.902;22.508;2023-05-20T04:25:39;99642.91;;;13.58;100.00
37634;BME280;32048;49.902;22.508;2023-05-20T04:28:10;99642.63;;;13.64;100.00
37634;BME280;32048;49.902;22.508;2023-05-20T04:30:39;99634.47;;;13.67;100.00
37634;BME280;32048;49.902;22.508;2023-05-20T04:33:08;99639.56;;;13.72;100.00
37634;BME280;32048;49.902;22.508;2023-05-20T04:35:34;99637.44;;;13.79;100.00
37634;BME280;32048;49.902;22.508;2023-05-20T04:38:03;99634.50;;;13.85;100.00
37634;BME280;32048;49.902;22.508;2023-05-20T04:40:30;99636.00;;;13.90;100.00
37634;BME280;32048;49.902;22.508;2023-05-20T04:43:01;99634.00;;;13.94;100.00
37634;BME280;32048;49.902;22.508;2023-05-20T04:45:27;99642.63;;;13.99;100.00
37634;BME280;32048;49.902;22.508;2023-05-20T04:47:54;99644.16;;;14.03;100.00
37634;BME280;32048;49.902;22.508;2023-05-20T04:50:21;99643.31;;;14.03;100.00
37634;BME280;32048;49.902;22.508;2023-05-20T04:52:48;99643.31;;;14.03;100.00
37634;BME280;32048;49.902;22.508;2023-05-20T04:55:16;99645.09;;;14.02;100.00
37634;BME280;32048;49.902;22.508;2023-05-20T04:57:43;99638.22;;;13.98;100.00
37634;BME280;32048;49.902;22.508;2023-05-20T05:00:10;99644.31;;;14.00;100.00
37634;BME280;32048;49.902;22.508;2023-05-20T05:02:38;99639.88;;;14.01;100.00
37634;BME280;32048;49.902;22.508;2023-05-20T05:05:05;99641.59;;;14.02;100.00
37634;BME280;32048;49.902;22.508;2023-05-20T05:07:33;99638.94;;;14.02;100.00
37634;BME280;32048;49.902;22.508;2023-05-20T05:10:00;99644.50;;;13.97;100.00
37634;BME280;32048;49.902;22.508;2023-05-20T05:12:27;99648.53;;;13.87;100.00
37634;BME280;32048;49.902;22.508;2023-05-20T05:14:54;99645.28;;;13.82;100.00
37634;BME280;32048;49.902;22.508;2023-05-20T05:17:21;99648.78;;;13.82;100.00
37634;BME280;32048;49.902;22.508;2023-05-20T05:19:48;99646.91;;;13.84;100.00
37634;BME280;32048;49.902;22.508;2023-05-20T05:22:15;99654.03;;;13.84;100.00
37634;BME280;32048;49.902;22.508;2023-05-20T05:24:42;99646.91;;;13.84;100.00
37634;BME280;32048;49.902;22.508;2023-05-20T05:27:09;99648.63;;;13.85;100.00
37634;BME280;32048;49.902;22.508;2023-05-20T05:29:36;99637.69;;;13.91;100.00
37634;BME280;32048;49.902;22.508;2023-05-20T05:32:03;99643.22;;;14.04;100.00
37634;BME280;32048;49.902;22.508;2023-05-20T05:34:30;99635.56;;;14.16;100.00
37634;BME280;32048;49.902;22.508;2023-05-20T05:36:57;99640.56;;;14.22;100.00
37634;BME280;32048;49.902;22.508;2023-05-20T05:39:24;99642.97;;;14.26;100.00
37634;BME280;32048;49.902;22.508;2023-05-20T05:41:51;99643.75;;;14.28;100.00
37634;BME280;32048;49.902;22.508;2023-05-20T05:44:19;99642.38;;;14.37;100.00
37634;BME280;32048;49.902;22.508;2023-05-20T05:46:46;99647.13;;;14.48;100.00
37634;BME280;32048;49.902;22.508;2023-05-20T05:49:13;99642.38;;;14.54;100.00
37634;BME280;32048;49.902;22.508;2023-05-20T05:51:40;99651.03;;;14.58;100.00
37634;BME280;32048;49.902;22.508;2023-05-20T05:54:07;99655.25;;;14.62;100.00
37634;BME280;32048;49.902;22.508;2023-05-20T05:56:34;99660.81;;;14.58;100.00
37634;BME280;32048;49.902;22.508;2023-05-20T05:59:01;99662.16;;;14.49;100.00
37634;BME280;32048;49.902;22.508;2023-05-20T06:01:28;99662.63;;;14.40;100.00
37634;BME280;32048;49.902;22.508;2023-05-20T06:03:55;99659.34;;;14.34;100.00
37634;BME280;32048;49.902;22.508;2023-05-20T06:06:22;99655.66;;;14.37;100.00
37634;BME280;32048;49.902;22.508;2023-05-20T06:08:49;99668.56;;;14.45;100.00
37634;BME280;32048;49.902;22.508;2023-05-20T06:11:16;99663.50;;;14.40;100.00
37634;BME280;32048;49.902;22.508;2023-05-20T06:13:43;99668.94;;;14.37;100.00
37634;BME280;32048;49.902;22.508;2023-05-20T06:16:10;99677.09;;;14.34;100.00
37634;BME280;32048;49.902;22.508;2023-05-20T06:18:37;99671.94;;;14.31;100.00
37634;BME280;32048;49.902;22.508;2023-05-20T06:21:04;99665.69;;;14.32;100.00
37634;BME280;32048;49.902;22.508;2023-05-20T06:23:31;99667.19;;;14.38;100.00
37634;BME280;32048;49.902;22.508;2023-05-20T06:25:58;99667.59;;;14.46;100.00
37634;BME280;32048;49.902;22.508;2023-05-20T06:28:26;99665.38;;;14.55;100.00
37634;BME280;32048;49.902;22.508;2023-05-20T06:30:53;99667.59;;;14.63;100.00
37634;BME280;32048;49.902;22.508;2023-05-20T06:33:23;99662.72;;;14.71;100.00
37634;BME280;32048;49.902;22.508;2023-05-20T06:35:55;99673.03;;;14.78;100.00
37634;BME280;32048;49.902;22.508;2023-05-20T06:38:22;99667.28;;;14.85;100.00
37634;BME280;32048;49.902;22.508;2023-05-20T06:40:49;99676.72;;;14.91;100.00
37634;BME280;32048;49.902;22.508;2023-05-20T06:43:16;99669.19;;;14.99;100.00
37634;BME280;32048;49.902;22.508;2023-05-20T06:45:43;99674.75;;;15.10;100.00
37634;BME280;32048;49.902;22.508;2023-05-20T06:48:11;99672.53;;;15.18;100.00
37634;BME280;32048;49.902;22.508;2023-05-20T06:50:39;99677.66;;;15.22;100.00
37634;BME280;32048;49.902;22.508;2023-05-20T06:53:05;99672.78;;;15.30;100.00
37634;BME280;32048;49.902;22.508;2023-05-20T06:55:33;99673.81;;;15.43;100.00
37634;BME280;32048;49.902;22.508;2023-05-20T06:58:00;99672.59;;;15.49;100.00
37634;BME280;32048;49.902;22.508;2023-05-20T07:00:27;99675.66;;;15.57;100.00
37634;BME280;32048;49.902;22.508;2023-05-20T07:02:54;99671.34;;;15.70;100.00
37634;BME280;32048;49.902;22.508;2023-05-20T07:05:21;99672.53;;;15.80;100.00
37634;BME280;32048;49.902;22.508;2023-05-20T07:07:50;99679.78;;;15.78;100.00
37634;BME280;32048;49.902;22.508;2023-05-20T07:10:17;99674.53;;;15.77;100.00
37634;BME280;32048;49.902;22.508;2023-05-20T07:12:43;99671.78;;;15.78;100.00
37634;BME280;32048;49.902;22.508;2023-05-20T07:15:11;99672.88;;;15.90;100.00
37634;BME280;32048;49.902;22.508;2023-05-20T07:17:38;99670.59;;;15.98;100.00
37634;BME280;32048;49.902;22.508;2023-05-20T07:20:05;99675.41;;;16.08;100.00
37634;BME280;32048;49.902;22.508;2023-05-20T07:22:32;99673.88;;;16.18;100.00
37634;BME280;32048;49.902;22.508;2023-05-20T07:24:59;99672.75;;;16.22;100.00
37634;BME280;32048;49.902;22.508;2023-05-20T07:27:26;99679.88;;;16.21;100.00
37634;BME280;32048;49.902;22.508;2023-05-20T07:29:53;99668.53;;;16.18;100.00
37634;BME280;32048;49.902;22.508;2023-05-20T07:32:20;99666.44;;;16.23;100.00
37634;BME280;32048;49.902;22.508;2023-05-20T07:34:47;99660.09;;;16.40;100.00
37634;BME280;32048;49.902;22.508;2023-05-20T07:37:14;99668.22;;;16.53;100.00
37634;BME280;32048;49.902;22.508;2023-05-20T07:39:42;99672.38;;;16.42;100.00
37634;BME280;32048;49.902;22.508;2023-05-20T07:42:09;99662.56;;;16.43;100.00
37634;BME280;32048;49.902;22.508;2023-05-20T07:44:36;99660.38;;;16.50;100.00
37634;BME280;32048;49.902;22.508;2023-05-20T07:47:03;99654.88;;;16.53;100.00
37634;BME280;32048;49.902;22.508;2023-05-20T07:49:30;99651.25;;;16.68;100.00
37634;BME280;32048;49.902;22.508;2023-05-20T07:51:56;99662.78;;;16.83;100.00
37634;BME280;32048;49.902;22.508;2023-05-20T07:54:25;99667.69;;;17.03;100.00
37634;BME280;32048;49.902;22.508;2023-05-20T07:56:52;99665.00;;;17.18;100.00
37634;BME280;32048;49.902;22.508;2023-05-20T07:59:19;99664.75;;;17.35;100.00
37634;BME280;32048;49.902;22.508;2023-05-20T08:01:46;99654.75;;;17.39;100.00
37634;BME280;32048;49.902;22.508;2023-05-20T08:04:14;99652.63;;;17.44;100.00
37634;BME280;32048;49.902;22.508;2023-05-20T08:06:41;99652.00;;;17.53;100.00
37634;BME280;32048;49.902;22.508;2023-05-20T08:09:10;99649.06;;;17.71;100.00
37634;BME280;32048;49.902;22.508;2023-05-20T08:11:37;99648.41;;;17.94;100.00
37634;BME280;32048;49.902;22.508;2023-05-20T08:14:04;99642.44;;;18.29;100.00
37634;BME280;32048;49.902;22.508;2023-05-20T08:16:31;99637.47;;;18.87;100.00
37634;BME280;32048;49.902;22.508;2023-05-20T08:18:58;99636.94;;;19.67;100.00
37634;BME280;32048;49.902;22.508;2023-05-20T08:21:26;99637.97;;;20.24;92.03
37634;BME280;32048;49.902;22.508;2023-05-20T08:23:53;99631.81;;;20.68;87.79
37634;BME280;32048;49.902;22.508;2023-05-20T08:26:20;99638.91;;;20.81;83.98
37634;BME280;32048;49.902;22.508;2023-05-20T08:28:47;99639.75;;;20.59;82.98
37634;BME280;32048;49.902;22.508;2023-05-20T08:31:14;99647.75;;;20.36;86.94
37634;BME280;32048;49.902;22.508;2023-05-20T08:33:43;99642.97;;;20.28;88.85
37634;BME280;32048;49.902;22.508;2023-05-20T08:36:10;99640.66;;;20.35;89.71
37634;BME280;32048;49.902;22.508;2023-05-20T08:38:37;99637.41;;;20.43;89.16
37634;BME280;32048;49.902;22.508;2023-05-20T08:41:04;99643.84;;;20.51;87.25
37634;BME280;32048;49.902;22.508;2023-05-20T08:43:31;99645.72;;;20.62;88.31
37634;BME280;32048;49.902;22.508;2023-05-20T08:45:58;99630.84;;;20.81;87.47
37634;BME280;32048;49.902;22.508;2023-05-20T08:48:25;99640.31;;;20.96;85.09
37634;BME280;32048;49.902;22.508;2023-05-20T08:50:54;99649.34;;;21.06;85.73
37634;BME280;32048;49.902;22.508;2023-05-20T08:53:23;99649.94;;;21.21;81.14
37634;BME280;32048;49.902;22.508;2023-05-20T08:55:53;99642.41;;;20.92;80.63
37634;BME280;32048;49.902;22.508;2023-05-20T08:58:30;99642.50;;;20.46;82.09
37634;BME280;32048;49.902;22.508;2023-05-20T09:00:58;99650.09;;;19.94;86.39
37634;BME280;32048;49.902;22.508;2023-05-20T09:03:25;99646.16;;;19.76;90.68
37634;BME280;32048;49.902;22.508;2023-05-20T09:05:52;99652.81;;;19.70;92.38
37634;BME280;32048;49.902;22.508;2023-05-20T09:08:23;99646.53;;;19.82;93.18
37634;BME280;32048;49.902;22.508;2023-05-20T09:10:51;99656.63;;;20.14;93.44
37634;BME280;32048;49.902;22.508;2023-05-20T09:13:20;99648.03;;;20.67;92.63
37634;BME280;32048;49.902;22.508;2023-05-20T09:15:49;99649.69;;;21.13;87.53
37634;BME280;32048;49.902;22.508;2023-05-20T09:18:16;99651.78;;;21.64;80.87
37634;BME280;32048;49.902;22.508;2023-05-20T09:20:45;99647.63;;;22.13;79.99
37634;BME280;32048;49.902;22.508;2023-05-20T09:23:12;99657.78;;;22.52;71.75
37634;BME280;32048;49.902;22.508;2023-05-20T09:25:39;99655.41;;;22.58;76.00
37634;BME280;32048;49.902;22.508;2023-05-20T09:28:06;99668.94;;;22.47;73.63
37634;BME280;32048;49.902;22.508;2023-05-20T09:30:34;99658.72;;;22.41;75.33
37634;BME280;32048;49.902;22.508;2023-05-20T09:33:02;99666.19;;;22.37;73.27
37634;BME280;32048;49.902;22.508;2023-05-20T09:35:33;99659.56;;;22.20;77.49
37634;BME280;32048;49.902;22.508;2023-05-20T09:38:01;99658.19;;;22.26;77.01
37634;BME280;32048;49.902;22.508;2023-05-20T09:40:30;99668.47;;;22.42;73.79
37634;BME280;32048;49.902;22.508;2023-05-20T09:43:04;99662.31;;;22.51;75.55
37634;BME280;32048;49.902;22.508;2023-05-20T09:45:31;99664.44;;;22.57;74.92
37634;BME280;32048;49.902;22.508;2023-05-20T09:47:58;99660.50;;;22.61;70.88
37634;BME280;32048;49.902;22.508;2023-05-20T09:50:25;99659.22;;;22.56;72.60
37634;BME280;32048;49.902;22.508;2023-05-20T09:52:53;99642.28;;;22.75;74.79
37634;BME280;32048;49.902;22.508;2023-05-20T09:55:21;99639.03;;;23.12;77.10
37634;BME280;32048;49.902;22.508;2023-05-20T09:57:48;99630.16;;;23.89;70.28
37634;BME280;32048;49.902;22.508;2023-05-20T10:00:15;99633.16;;;24.62;68.00
37634;BME280;32048;49.902;22.508;2023-05-20T10:02:49;99627.94;;;25.34;64.61
37634;BME280;32048;49.902;22.508;2023-05-20T10:15:39;99620.13;;;26.55;57.88
37634;BME280;32048;49.902;22.508;2023-05-20T10:18:24;99620.00;;;26.65;57.66
37634;BME280;32048;49.902;22.508;2023-05-20T10:20:53;99612.22;;;26.70;58.90
37634;BME280;32048;49.902;22.508;2023-05-20T10:23:23;99605.53;;;26.90;56.34
37634;BME280;32048;49.902;22.508;2023-05-20T10:25:51;99603.25;;;27.12;55.66
37634;BME280;32048;49.902;22.508;2023-05-20T10:28:28;99597.69;;;27.22;52.09
37634;BME280;32048;49.902;22.508;2023-05-20T10:30:56;99597.56;;;27.48;55.81
37634;BME280;32048;49.902;22.508;2023-05-20T10:33:27;99610.00;;;28.08;53.53
37634;BME280;32048;49.902;22.508;2023-05-20T10:35:58;99602.38;;;28.67;52.83
37634;BME280;32048;49.902;22.508;2023-05-20T10:38:26;99600.75;;;28.89;48.35
37634;BME280;32048;49.902;22.508;2023-05-20T10:40:52;99597.16;;;28.57;48.36
37634;BME280;32048;49.902;22.508;2023-05-20T10:43:26;99604.09;;;28.60;48.75
37634;BME280;32048;49.902;22.508;2023-05-20T10:45:56;99593.16;;;28.76;49.22
37634;BME280;32048;49.902;22.508;2023-05-20T10:50:55;99588.47;;;29.56;45.66
37634;BME280;32048;49.902;22.508;2023-05-20T10:53:26;99581.81;;;29.58;42.91
37634;BME280;32048;49.902;22.508;2023-05-20T10:56:00;99572.59;;;29.59;43.86
37634;BME280;32048;49.902;22.508;2023-05-20T10:58:34;99574.44;;;29.67;47.24
37634;BME280;32048;49.902;22.508;2023-05-20T11:01:02;99563.91;;;30.02;44.18
37634;BME280;32048;49.902;22.508;2023-05-20T11:03:29;99564.56;;;30.04;44.96
37634;BME280;32048;49.902;22.508;2023-05-20T11:05:56;99567.59;;;30.24;47.59
37634;BME280;32048;49.902;22.508;2023-05-20T11:08:26;99571.50;;;30.59;43.27
37634;BME280;32048;49.902;22.508;2023-05-20T11:10:55;99562.16;;;30.24;42.35
37634;BME280;32048;49.902;22.508;2023-05-20T11:13:23;99551.28;;;29.25;43.50
37634;BME280;32048;49.902;22.508;2023-05-20T11:15:51;99550.72;;;28.28;47.25
37634;BME280;32048;49.902;22.508;2023-05-20T11:18:18;99543.66;;;27.45;51.49
37634;BME280;32048;49.902;22.508;2023-05-20T11:20:45;99543.59;;;27.12;53.78
37634;BME280;32048;49.902;22.508;2023-05-20T11:23:13;99540.72;;;27.13;57.41
37634;BME280;32048;49.902;22.508;2023-05-20T11:25:40;99536.03;;;27.56;54.45
37634;BME280;32048;49.902;22.508;2023-05-20T11:28:11;99535.00;;;27.90;54.97
37634;BME280;32048;49.902;22.508;2023-05-20T11:30:40;99532.00;;;28.41;53.92
37634;BME280;32048;49.902;22.508;2023-05-20T11:33:10;99525.97;;;28.93;51.84
37634;BME280;32048;49.902;22.508;2023-05-20T11:35:37;99528.84;;;29.46;48.77
37634;BME280;32048;49.902;22.508;2023-05-20T11:38:11;99525.59;;;29.51;49.12
37634;BME280;32048;49.902;22.508;2023-05-20T11:40:41;99522.28;;;29.78;47.15
37634;BME280;32048;49.902;22.508;2023-05-20T11:43:17;99519.84;;;29.83;45.79
37634;BME280;32048;49.902;22.508;2023-05-20T11:45:45;99514.91;;;29.87;48.80
37634;BME280;32048;49.902;22.508;2023-05-20T11:48:13;99517.44;;;30.03;45.61
37634;BME280;32048;49.902;22.508;2023-05-20T11:50:43;99512.28;;;30.23;45.53
37634;BME280;32048;49.902;22.508;2023-05-20T11:53:17;99508.31;;;30.26;43.77
37634;BME280;32048;49.902;22.508;2023-05-20T11:58:14;99501.91;;;29.74;45.21
37634;BME280;32048;49.902;22.508;2023-05-20T12:00:41;99500.22;;;29.73;45.88
37634;BME280;32048;49.902;22.508;2023-05-20T12:03:18;99494.47;;;29.68;47.38
37634;BME280;32048;49.902;22.508;2023-05-20T12:05:45;99491.88;;;29.75;45.86
37634;BME280;32048;49.902;22.508;2023-05-20T12:08:14;99491.41;;;29.71;45.63
37634;BME280;32048;49.902;22.508;2023-05-20T12:10:40;99487.91;;;29.77;44.45
37634;BME280;32048;49.902;22.508;2023-05-20T12:13:08;99491.41;;;29.48;44.73
37634;BME280;32048;49.902;22.508;2023-05-20T12:15:36;99478.03;;;28.69;44.44
37634;BME280;32048;49.902;22.508;2023-05-20T12:18:03;99474.38;;;28.14;47.10
37634;BME280;32048;49.902;22.508;2023-05-20T12:20:31;99469.50;;;27.77;50.44
37634;BME280;32048;49.902;22.508;2023-05-20T12:23:00;99459.22;;;27.40;51.52
37634;BME280;32048;49.902;22.508;2023-05-20T12:25:27;99465.63;;;27.06;52.83
37634;BME280;32048;49.902;22.508;2023-05-20T12:27:54;99459.81;;;26.68;53.36
37634;BME280;32048;49.902;22.508;2023-05-20T12:30:22;99458.00;;;26.34;55.19
37634;BME280;32048;49.902;22.508;2023-05-20T12:32:50;99456.06;;;26.10;57.99
37634;BME280;32048;49.902;22.508;2023-05-20T12:35:23;99454.78;;;25.96;59.19
37634;BME280;32048;49.902;22.508;2023-05-20T12:37:51;99455.28;;;25.65;58.26
37634;BME280;32048;49.902;22.508;2023-05-20T12:40:18;99449.72;;;25.41;58.65
37634;BME280;32048;49.902;22.508;2023-05-20T12:42:46;99442.00;;;25.28;65.44
37634;BME280;32048;49.902;22.508;2023-05-20T12:45:13;99439.53;;;25.17;59.39
37634;BME280;32048;49.902;22.508;2023-05-20T12:47:40;99445.41;;;25.12;62.89
37634;BME280;32048;49.902;22.508;2023-05-20T12:50:07;99430.72;;;25.15;61.63
37634;BME280;32048;49.902;22.508;2023-05-20T12:52:35;99424.47;;;25.14;65.82
37634;BME280;32048;49.902;22.508;2023-05-20T12:55:01;99422.38;;;25.08;59.67
37634;BME280;32048;49.902;22.508;2023-05-20T12:57:29;99418.03;;;24.89;63.28
37634;BME280;32048;49.902;22.508;2023-05-20T12:59:56;99413.56;;;24.80;62.14
37634;BME280;32048;49.902;22.508;2023-05-20T13:02:23;99426.50;;;24.76;62.37
37634;BME280;32048;49.902;22.508;2023-05-20T13:04:50;99413.16;;;24.75;64.12